Time;durP1;ratioP1;P1;durP2;ratioP2;P2;SDS_P1;SDS_P2;PMS_P1;PMS_P2;Temp;Humidity;BMP_temperature;BMP_pressure;BME280_temperature;BME280_humidity;BME280_pressure;Samples;Min_cycle;Max_cycle;Signal;HPM_P1;HPM_P2
2022/07/17 00:01:19;;;;;;;3.00;1.43;;;24.90;55.70;;;;;;6179497;23;20383;-68
2022/07/17 00:03:47;;;;;;;1.73;1.50;;;24.90;55.70;;;;;;6204588;23;20387;-68
2022/07/17 00:06:14;;;;;;;2.23;1.40;;;24.90;55.80;;;;;;6180910;23;20377;-68
2022/07/17 00:08:40;;;;;;;3.30;1.60;;;24.90;55.80;;;;;;6156558;23;20999;-68
2022/07/17 00:11:08;;;;;;;2.30;1.40;;;24.80;55.80;;;;;;6181119;23;20819;-68
2022/07/17 00:13:39;;;;;;;2.20;1.83;;;24.80;55.80;;;;;;6182814;23;20433;-69
2022/07/17 00:16:06;;;;;;;1.53;1.13;;;24.80;55.90;;;;;;6184009;23;20437;-68
2022/07/17 00:18:32;;;;;;;1.53;1.30;;;24.80;55.90;;;;;;6185323;23;20400;-70
2022/07/17 00:21:01;;;;;;;3.43;1.77;;;24.70;55.80;;;;;;6185391;23;20392;-69
2022/07/17 00:23:28;;;;;;;2.33;1.40;;;24.70;55.90;;;;;;6134448;23;20388;-68
2022/07/17 00:25:56;;;;;;;3.83;1.60;;;24.70;55.90;;;;;;6183690;23;20708;-68
2022/07/17 00:28:25;;;;;;;1.87;1.50;;;24.70;56.00;;;;;;6184807;23;20383;-69
2022/07/17 00:30:56;;;;;;;2.17;1.57;;;24.70;55.90;;;;;;6183805;23;20506;-69
2022/07/17 00:33:24;;;;;;;4.93;1.40;;;24.70;56.00;;;;;;6183257;23;20361;-69
2022/07/17 00:35:50;;;;;;;3.10;1.40;;;24.60;56.00;;;;;;6183456;23;20418;-69
2022/07/17 00:38:17;;;;;;;3.20;1.40;;;24.60;56.00;;;;;;6182493;23;20424;-68
2022/07/17 00:40:45;;;;;;;1.90;1.17;;;24.60;56.00;;;;;;6183853;23;20392;-69
2022/07/17 00:43:13;;;;;;;3.00;1.30;;;24.60;56.10;;;;;;6185203;23;20422;-69
2022/07/17 00:45:40;;;;;;;2.03;1.23;;;24.50;56.00;;;;;;6183781;23;20412;-69
2022/07/17 00:48:14;;;;;;;1.83;1.20;;;24.50;56.00;;;;;;6158615;23;20903;-69
2022/07/17 00:50:45;;;;;;;2.13;1.40;;;24.50;56.10;;;;;;6184925;23;20403;-68
2022/07/17 00:53:13;;;;;;;4.80;1.50;;;24.50;56.10;;;;;;6158901;23;20496;-69
2022/07/17 00:55:40;;;;;;;1.97;1.20;;;24.50;56.20;;;;;;6183600;23;20890;-68
2022/07/17 00:58:09;;;;;;;1.57;1.30;;;24.50;56.20;;;;;;6183520;23;21270;-69
2022/07/17 01:00:35;;;;;;;3.17;1.40;;;24.40;56.10;;;;;;6183865;23;20398;-69
2022/07/17 01:03:03;;;;;;;2.50;1.20;;;24.40;56.20;;;;;;6185059;23;20703;-68
2022/07/17 01:05:34;;;;;;;2.50;1.20;;;24.40;56.20;;;;;;6183209;23;20376;-68
2022/07/17 01:08:05;;;;;;;3.37;1.53;;;24.40;56.20;;;;;;6208559;23;20388;-68
2022/07/17 01:10:31;;;;;;;1.80;1.10;;;24.40;56.30;;;;;;6158755;23;20459;-69
2022/07/17 01:12:57;;;;;;;3.13;1.40;;;24.30;56.30;;;;;;6185021;23;20384;-68
2022/07/17 01:15:23;;;;;;;3.20;1.63;;;24.30;56.20;;;;;;6185026;23;20394;-68
2022/07/17 01:17:49;;;;;;;2.57;1.50;;;24.30;56.30;;;;;;6184007;23;20431;-69
2022/07/17 01:20:30;;;;;;;2.33;1.60;;;24.30;56.30;;;;;;6183383;23;20486;-68
2022/07/17 01:22:57;;;;;;;2.73;1.20;;;24.30;56.30;;;;;;6185020;23;20381;-69
2022/07/17 01:25:28;;;;;;;3.50;1.30;;;24.20;56.30;;;;;;6159228;23;20723;-69
2022/07/17 01:27:59;;;;;;;3.77;1.43;;;24.20;56.30;;;;;;6184111;23;20384;-68
2022/07/17 01:30:25;;;;;;;2.80;1.10;;;24.20;56.30;;;;;;6184894;23;21002;-69
2022/07/17 01:32:51;;;;;;;1.80;1.20;;;24.20;56.40;;;;;;6184843;23;20371;-68
2022/07/17 01:35:19;;;;;;;1.37;1.00;;;24.20;56.40;;;;;;6158574;23;20400;-69
2022/07/17 01:37:45;;;;;;;1.73;1.30;;;24.10;56.30;;;;;;6184466;23;20466;-68
2022/07/17 01:40:13;;;;;;;2.50;1.30;;;24.10;56.30;;;;;;6158456;23;20494;-69
2022/07/17 01:42:43;;;;;;;1.53;1.37;;;24.10;56.30;;;;;;6182713;23;20823;-68
2022/07/17 01:45:10;;;;;;;2.60;1.50;;;24.10;56.30;;;;;;6158526;23;20863;-69
2022/07/17 01:47:36;;;;;;;2.17;1.20;;;24.10;56.30;;;;;;6158327;23;20396;-69
2022/07/17 01:50:03;;;;;;;3.23;1.20;;;24.00;56.30;;;;;;6158072;23;20412;-69
2022/07/17 01:52:37;;;;;;;1.53;1.23;;;24.00;56.30;;;;;;6183184;23;20375;-68
2022/07/17 01:55:04;;;;;;;2.80;1.43;;;24.00;56.30;;;;;;6183251;23;20444;-68
2022/07/17 01:57:32;;;;;;;2.80;1.40;;;24.00;56.40;;;;;;6183007;23;20750;-68
2022/07/17 02:00:02;;;;;;;2.17;1.37;;;24.00;56.40;;;;;;6208157;23;20408;-68
2022/07/17 02:02:34;;;;;;;1.93;1.20;;;23.90;56.40;;;;;;6184694;23;20413;-69
2022/07/17 02:05:07;;;;;;;1.90;1.00;;;23.90;56.40;;;;;;6182941;23;20384;-69
2022/07/17 02:07:39;;;;;;;1.40;1.10;;;23.90;56.40;;;;;;6182785;23;20391;-68
2022/07/17 02:10:13;;;;;;;1.67;1.27;;;23.90;56.40;;;;;;6184305;23;20865;-68
2022/07/17 02:12:44;;;;;;;2.50;1.13;;;23.90;56.40;;;;;;6174158;23;20399;-68
2022/07/17 02:15:11;;;;;;;2.07;1.40;;;23.80;57.00;;;;;;6158167;23;20368;-68
2022/07/17 02:17:39;;;;;;;1.80;1.27;;;23.80;56.40;;;;;;6182826;23;20431;-68
2022/07/17 02:20:07;;;;;;;2.23;1.67;;;23.80;56.40;;;;;;6184280;23;20459;-68
2022/07/17 02:22:55;;;;;;;2.43;1.57;;;23.80;56.40;;;;;;6156316;23;20395;-68
2022/07/17 02:25:21;;;;;;;2.80;1.47;;;23.80;56.50;;;;;;6183155;23;20376;-69
2022/07/17 02:27:47;;;;;;;2.13;1.30;;;23.80;56.50;;;;;;6183849;23;20157;-69
2022/07/17 02:30:15;;;;;;;1.97;1.43;;;23.70;56.50;;;;;;6184344;23;20487;-69
2022/07/17 02:32:42;;;;;;;1.60;1.20;;;23.70;56.50;;;;;;6182880;23;20156;-69
2022/07/17 02:35:09;;;;;;;3.00;1.30;;;23.70;56.50;;;;;;6182518;23;20714;-68
2022/07/17 02:37:39;;;;;;;2.67;1.53;;;23.70;56.50;;;;;;6182705;23;20495;-69
2022/07/17 02:40:08;;;;;;;2.80;1.40;;;23.70;56.50;;;;;;6182750;23;20414;-69
2022/07/17 02:42:36;;;;;;;1.60;1.23;;;23.60;56.50;;;;;;6182556;23;20693;-69
2022/07/17 02:45:07;;;;;;;2.10;1.27;;;23.60;56.50;;;;;;6207181;23;20417;-68
2022/07/17 02:47:35;;;;;;;2.50;1.30;;;23.60;56.50;;;;;;6157499;23;20832;-68
2022/07/17 02:50:03;;;;;;;1.47;1.00;;;23.60;56.50;;;;;;6133231;23;20927;-68
2022/07/17 02:52:31;;;;;;;2.53;1.57;;;23.50;56.50;;;;;;6157477;23;20376;-69
2022/07/17 02:55:02;;;;;;;3.57;1.60;;;23.50;56.50;;;;;;6182578;23;20375;-69
2022/07/17 02:57:30;;;;;;;1.93;1.33;;;23.60;56.60;;;;;;6182283;23;20169;-68
2022/07/17 02:59:56;;;;;;;1.70;1.47;;;23.50;56.50;;;;;;6157214;23;20917;-69
2022/07/17 03:02:25;;;;;;;3.07;1.43;;;23.50;56.60;;;;;;6182486;23;20368;-69
2022/07/17 03:04:51;;;;;;;1.70;1.30;;;23.40;57.00;;;;;;6182681;23;20381;-69
2022/07/17 03:07:17;;;;;;;1.97;1.50;;;23.40;56.50;;;;;;6182566;23;20376;-68
2022/07/17 03:09:48;;;;;;;1.40;1.30;;;23.40;56.50;;;;;;6182590;23;20412;-68
2022/07/17 03:12:14;;;;;;;2.30;1.30;;;23.40;56.50;;;;;;6183773;23;20376;-68
2022/07/17 03:14:43;;;;;;;1.53;1.40;;;23.40;56.60;;;;;;6183536;23;20369;-69
2022/07/17 03:17:09;;;;;;;1.70;1.20;;;23.40;56.60;;;;;;6182238;23;20771;-69
2022/07/17 03:19:35;;;;;;;3.30;1.40;;;23.30;56.50;;;;;;6183736;23;20404;-69
2022/07/17 03:22:01;;;;;;;2.60;1.37;;;23.30;56.50;;;;;;6182440;23;20360;-68
2022/07/17 03:24:30;;;;;;;2.20;1.73;;;23.30;56.60;;;;;;6182417;23;20400;-69
2022/07/17 03:26:59;;;;;;;1.63;1.53;;;23.30;56.60;;;;;;6207170;23;20384;-69
2022/07/17 03:29:30;;;;;;;1.97;1.30;;;23.30;56.60;;;;;;6206797;23;20456;-69
2022/07/17 03:31:56;;;;;;;1.97;1.27;;;23.30;56.60;;;;;;6182382;23;20368;-68
2022/07/17 03:34:29;;;;;;;2.27;1.23;;;23.20;56.60;;;;;;6207397;23;20737;-69
2022/07/17 03:36:55;;;;;;;2.47;1.40;;;23.20;56.60;;;;;;6183656;23;20495;-69
2022/07/17 03:39:21;;;;;;;2.73;1.47;;;23.20;56.60;;;;;;6181351;23;20505;-69
2022/07/17 03:41:51;;;;;;;3.30;1.70;;;23.20;56.70;;;;;;6207110;23;20171;-69
2022/07/17 03:44:18;;;;;;;1.40;1.30;;;23.20;56.70;;;;;;6207074;23;20414;-69
2022/07/17 03:46:49;;;;;;;2.13;1.70;;;23.20;56.70;;;;;;6157242;23;20474;-69
2022/07/17 03:49:19;;;;;;;1.63;1.37;;;23.10;56.60;;;;;;6134018;23;20415;-69
2022/07/17 03:51:48;;;;;;;2.80;1.20;;;23.10;56.60;;;;;;6181966;23;20365;-69
2022/07/17 03:54:14;;;;;;;2.50;1.50;;;23.10;56.60;;;;;;6183447;23;20383;-69
2022/07/17 03:56:40;;;;;;;2.53;1.40;;;23.10;56.60;;;;;;6206950;23;20438;-68
2022/07/17 03:59:08;;;;;;;2.73;1.63;;;23.10;56.70;;;;;;6183515;23;20376;-69
2022/07/17 04:01:35;;;;;;;2.77;1.70;;;23.00;56.60;;;;;;6207031;23;20372;-69
2022/07/17 04:04:01;;;;;;;2.53;1.50;;;23.00;56.70;;;;;;6182188;23;20367;-68
2022/07/17 04:06:30;;;;;;;2.17;1.80;;;23.00;56.60;;;;;;6183244;23;20462;-68
2022/07/17 04:09:03;;;;;;;1.50;1.40;;;23.00;56.70;;;;;;6207023;23;20431;-68
2022/07/17 04:11:31;;;;;;;2.10;1.40;;;23.00;56.70;;;;;;6182368;23;20443;-69
2022/07/17 04:14:02;;;;;;;2.40;1.40;;;22.90;56.60;;;;;;6182311;23;20459;-69
2022/07/17 04:16:30;;;;;;;2.43;1.90;;;22.90;56.70;;;;;;6207173;23;20420;-69
2022/07/17 04:18:58;;;;;;;4.43;1.40;;;22.90;56.70;;;;;;6183056;23;21119;-68
2022/07/17 04:21:27;;;;;;;2.90;1.60;;;22.90;56.70;;;;;;6182178;23;20371;-69
2022/07/17 04:23:53;;;;;;;3.67;1.97;;;22.90;56.80;;;;;;6183623;23;20395;-69
2022/07/17 04:26:21;;;;;;;2.40;1.60;;;22.90;56.80;;;;;;6183716;23;20364;-69
2022/07/17 04:28:49;;;;;;;4.87;1.63;;;22.80;56.70;;;;;;6182108;23;20364;-69
2022/07/17 04:31:15;;;;;;;2.60;1.60;;;22.90;56.80;;;;;;6181850;23;20388;-69
2022/07/17 04:33:43;;;;;;;1.83;1.40;;;22.80;56.70;;;;;;6207021;23;20768;-69
2022/07/17 04:36:09;;;;;;;2.53;1.90;;;22.80;56.80;;;;;;6182235;23;20448;-69
2022/07/17 04:38:40;;;;;;;1.83;1.30;;;22.80;56.80;;;;;;6181932;23;20527;-69
2022/07/17 04:41:06;;;;;;;2.20;1.70;;;22.80;56.90;;;;;;6182148;23;20392;-68
2022/07/17 04:43:32;;;;;;;2.90;1.50;;;22.80;56.90;;;;;;6182087;23;20423;-69
2022/07/17 04:46:03;;;;;;;2.50;1.70;;;22.70;56.80;;;;;;6181544;23;20405;-68
2022/07/17 04:48:34;;;;;;;1.87;1.70;;;22.70;56.80;;;;;;6156990;23;20399;-68
2022/07/17 04:51:00;;;;;;;1.70;1.47;;;22.70;56.90;;;;;;6157756;23;20795;-68
2022/07/17 04:53:26;;;;;;;2.73;1.27;;;22.70;56.90;;;;;;6134758;23;20995;-68
2022/07/17 04:55:52;;;;;;;3.30;1.70;;;22.70;56.90;;;;;;6185381;23;20422;-69
2022/07/17 04:58:47;;;;;;;2.30;1.57;;;22.60;56.90;;;;;;6186217;23;20432;-68
2022/07/17 05:01:15;;;;;;;3.00;2.20;;;22.60;56.90;;;;;;6185066;23;20870;-68
2022/07/17 05:03:41;;;;;;;2.10;1.33;;;22.60;57.00;;;;;;6183967;23;20379;-68
2022/07/17 05:06:07;;;;;;;1.70;1.30;;;22.60;57.00;;;;;;6185441;23;20376;-68
2022/07/17 05:08:34;;;;;;;2.80;1.50;;;22.60;57.10;;;;;;6134142;23;20407;-68
2022/07/17 05:11:03;;;;;;;2.40;1.60;;;22.60;57.10;;;;;;6183681;23;20737;-68
2022/07/17 05:13:29;;;;;;;1.83;1.27;;;22.60;57.10;;;;;;6183865;23;20379;-68
2022/07/17 05:16:00;;;;;;;2.20;1.50;;;22.50;57.10;;;;;;6185386;23;20407;-68
2022/07/17 05:18:29;;;;;;;3.00;1.63;;;22.50;57.20;;;;;;6208452;23;20859;-68
2022/07/17 05:20:55;;;;;;;2.40;1.60;;;22.50;57.20;;;;;;6158628;23;20417;-69
2022/07/17 05:23:21;;;;;;;2.70;1.40;;;22.50;57.20;;;;;;6183607;23;20408;-68
2022/07/17 05:25:52;;;;;;;2.27;1.60;;;22.50;57.30;;;;;;6184963;23;20373;-69
2022/07/17 05:28:18;;;;;;;1.90;1.57;;;22.50;57.30;;;;;;6183403;23;20384;-69
2022/07/17 05:30:44;;;;;;;1.87;1.40;;;22.50;57.40;;;;;;6208405;23;20415;-68
2022/07/17 05:33:10;;;;;;;3.27;1.60;;;22.50;57.40;;;;;;6183606;23;20443;-68
2022/07/17 05:35:36;;;;;;;2.17;1.73;;;22.50;57.40;;;;;;6208545;23;20395;-69
2022/07/17 05:38:02;;;;;;;1.80;1.47;;;22.50;57.50;;;;;;6207989;23;20435;-68
2022/07/17 05:40:28;;;;;;;2.23;1.70;;;22.40;57.40;;;;;;6183282;23;20435;-68
2022/07/17 05:42:54;;;;;;;1.93;1.73;;;22.40;57.50;;;;;;6208377;23;20438;-69
2022/07/17 05:45:20;;;;;;;3.17;1.80;;;22.40;57.50;;;;;;6185062;23;20368;-68
2022/07/17 05:47:46;;;;;;;2.27;1.40;;;22.40;57.50;;;;;;6208247;23;20383;-70
2022/07/17 05:50:12;;;;;;;4.30;1.57;;;22.40;57.60;;;;;;6183409;23;20414;-69
2022/07/17 05:52:40;;;;;;;2.83;1.70;;;22.40;57.60;;;;;;6180356;23;20177;-68
2022/07/17 05:55:07;;;;;;;1.53;1.43;;;22.40;57.50;;;;;;6180772;23;20372;-69
2022/07/17 05:57:52;;;;;;;3.00;1.80;;;22.40;57.60;;;;;;6181424;23;20933;-70
2022/07/17 06:00:18;;;;;;;2.80;1.50;;;22.40;57.70;;;;;;6182393;23;20495;-70
2022/07/17 06:02:48;;;;;;;3.87;1.63;;;22.30;57.60;;;;;;6132361;23;20449;-70
2022/07/17 06:05:19;;;;;;;2.53;1.70;;;22.30;57.60;;;;;;6205383;23;20384;-70
2022/07/17 06:07:50;;;;;;;2.60;1.67;;;22.30;57.60;;;;;;6180816;23;20372;-70
2022/07/17 06:10:16;;;;;;;2.77;1.60;;;22.30;57.60;;;;;;6180490;23;20911;-70
2022/07/17 06:12:42;;;;;;;3.17;1.77;;;22.30;57.60;;;;;;6155962;23;20461;-70
2022/07/17 06:15:11;;;;;;;2.13;1.60;;;22.30;57.60;;;;;;6180759;23;21018;-70
2022/07/17 06:17:40;;;;;;;3.47;1.60;;;22.30;57.60;;;;;;6180254;23;20459;-70
2022/07/17 06:20:06;;;;;;;3.83;1.90;;;22.30;57.60;;;;;;6155700;23;20415;-70
2022/07/17 06:22:32;;;;;;;2.40;1.40;;;22.30;57.70;;;;;;6180010;23;20408;-70
2022/07/17 06:25:00;;;;;;;1.43;1.23;;;22.30;57.60;;;;;;6180618;23;20380;-71
2022/07/17 06:27:27;;;;;;;2.77;1.50;;;22.30;57.70;;;;;;6180359;23;20742;-70
2022/07/17 06:29:55;;;;;;;1.60;1.50;;;22.30;57.70;;;;;;6180466;23;20411;-71
2022/07/17 06:32:21;;;;;;;3.07;1.73;;;22.30;57.70;;;;;;6180432;23;20368;-71
2022/07/17 06:34:53;;;;;;;1.70;1.47;;;22.30;57.70;;;;;;6180403;23;20879;-71
2022/07/17 06:37:19;;;;;;;3.20;1.87;;;22.20;57.60;;;;;;6181572;23;20416;-71
2022/07/17 06:39:45;;;;;;;3.53;1.80;;;22.20;57.70;;;;;;6155179;23;20404;-71
2022/07/17 06:42:13;;;;;;;2.20;1.70;;;22.20;57.70;;;;;;6180535;23;20420;-71
2022/07/17 06:44:44;;;;;;;6.23;2.30;;;22.20;57.70;;;;;;6179882;23;20419;-70
2022/07/17 06:47:10;;;;;;;1.50;1.30;;;22.20;57.70;;;;;;6180229;23;20384;-70
2022/07/17 06:49:38;;;;;;;2.03;1.40;;;22.30;57.70;;;;;;6180483;23;20411;-71
2022/07/17 06:52:09;;;;;;;2.30;1.33;;;22.20;57.70;;;;;;6181449;23;20854;-71
2022/07/17 06:54:40;;;;;;;3.07;1.80;;;22.20;57.70;;;;;;6204336;23;20416;-71
2022/07/17 06:57:07;;;;;;;2.90;1.50;;;22.20;57.70;;;;;;6155532;23;20428;-70
2022/07/17 06:59:36;;;;;;;3.00;2.00;;;22.20;57.70;;;;;;6179873;23;21004;-70
2022/07/17 07:02:04;;;;;;;2.60;1.50;;;22.30;57.80;;;;;;6180298;23;20997;-70
2022/07/17 07:04:30;;;;;;;1.60;1.50;;;22.30;57.80;;;;;;6181393;23;20404;-70
2022/07/17 07:06:56;;;;;;;2.00;1.50;;;22.20;57.70;;;;;;6155277;23;20871;-71
2022/07/17 07:09:25;;;;;;;3.53;1.87;;;22.20;57.70;;;;;;6205001;23;20411;-71
2022/07/17 07:11:51;;;;;;;3.90;1.93;;;22.20;57.70;;;;;;6204626;23;20809;-71
2022/07/17 07:14:18;;;;;;;2.83;1.57;;;22.20;57.80;;;;;;6179723;23;20433;-70
2022/07/17 07:16:44;;;;;;;1.83;1.57;;;22.20;58.00;;;;;;6181388;23;20448;-70
2022/07/17 07:19:12;;;;;;;1.90;1.43;;;22.30;57.80;;;;;;6204675;23;20898;-71
2022/07/17 07:21:38;;;;;;;2.00;1.50;;;22.20;57.70;;;;;;6178512;23;20165;-71
2022/07/17 07:24:04;;;;;;;2.07;1.40;;;22.30;57.80;;;;;;6181547;23;20705;-71
2022/07/17 07:26:32;;;;;;;5.17;1.80;;;22.20;57.70;;;;;;6179775;23;20410;-71
2022/07/17 07:28:59;;;;;;;3.53;1.57;;;22.30;57.90;;;;;;6129845;23;20419;-70
2022/07/17 07:31:25;;;;;;;2.00;1.70;;;22.30;57.90;;;;;;6179907;23;20420;-71
2022/07/17 07:33:50;;;;;;;2.40;1.70;;;22.30;57.80;;;;;;6179982;23;20374;-71
2022/07/17 07:36:16;;;;;;;3.00;1.50;;;22.30;57.80;;;;;;6181103;23;20180;-71
2022/07/17 07:39:09;;;;;;;2.20;1.50;;;22.30;57.80;;;;;;6140494;23;20389;-70
2022/07/17 07:41:44;;;;;;;2.57;1.40;;;22.30;57.90;;;;;;6180289;23;20411;-71
2022/07/17 07:44:12;;;;;;;2.20;1.60;;;22.30;57.90;;;;;;6204756;23;20427;-71
2022/07/17 07:46:41;;;;;;;1.80;1.47;;;22.30;57.80;;;;;;6205098;23;20423;-71
2022/07/17 07:49:28;;;;;;;3.33;1.37;;;22.30;57.80;;;;;;6180923;23;20399;-71
2022/07/17 07:51:56;;;;;;;2.17;1.63;;;22.30;57.80;;;;;;6178644;23;20411;-70
2022/07/17 07:54:22;;;;;;;2.03;1.53;;;22.40;57.90;;;;;;6181338;23;20410;-71
2022/07/17 07:56:54;;;;;;;1.83;1.43;;;22.40;57.90;;;;;;6181232;23;20412;-71
2022/07/17 07:59:20;;;;;;;3.30;1.53;;;22.40;57.90;;;;;;6179678;23;20508;-71
2022/07/17 08:01:48;;;;;;;2.73;1.73;;;22.40;57.90;;;;;;6204728;23;20388;-71
2022/07/17 08:04:19;;;;;;;2.87;1.67;;;22.40;57.90;;;;;;6178945;23;20415;-71
2022/07/17 08:06:45;;;;;;;3.10;1.47;;;22.40;57.90;;;;;;6155359;23;20996;-71
2022/07/17 08:09:16;;;;;;;2.03;1.30;;;22.50;58.00;;;;;;6179154;23;20796;-70
2022/07/17 08:11:42;;;;;;;3.33;1.73;;;22.50;58.00;;;;;;6207451;23;20395;-74
2022/07/17 08:14:08;;;;;;;3.13;1.87;;;22.50;57.90;;;;;;6183719;23;20380;-70
2022/07/17 08:16:35;;;;;;;3.60;2.00;;;22.50;57.90;;;;;;6182200;23;20411;-70
2022/07/17 08:19:03;;;;;;;1.67;1.47;;;22.50;57.90;;;;;;6182280;23;20744;-70
2022/07/17 08:21:29;;;;;;;1.93;1.17;;;22.50;57.90;;;;;;6183421;23;20368;-70
2022/07/17 08:24:02;;;;;;;2.00;1.60;;;22.60;58.00;;;;;;6183823;23;20360;-70
2022/07/17 08:26:30;;;;;;;3.30;1.67;;;22.60;58.00;;;;;;6158204;23;20462;-70
2022/07/17 08:28:58;;;;;;;2.70;1.40;;;22.60;58.00;;;;;;6185520;23;20375;-70
2022/07/17 08:31:25;;;;;;;2.57;1.50;;;22.60;58.00;;;;;;6184281;23;20853;-70
2022/07/17 08:33:51;;;;;;;2.30;1.30;;;22.60;58.00;;;;;;6185866;23;20364;-70
2022/07/17 08:36:17;;;;;;;1.87;1.10;;;22.70;58.10;;;;;;6185305;23;20380;-70
2022/07/17 08:38:43;;;;;;;1.63;1.30;;;22.70;58.10;;;;;;6208853;23;20468;-71
2022/07/17 08:41:10;;;;;;;2.47;1.40;;;22.80;58.20;;;;;;6184016;23;20185;-71
2022/07/17 08:43:36;;;;;;;3.37;1.27;;;22.80;58.10;;;;;;6183968;23;20497;-70
2022/07/17 08:46:09;;;;;;;2.87;1.43;;;22.80;58.10;;;;;;6184182;23;20479;-70
2022/07/17 08:48:43;;;;;;;1.40;1.30;;;22.80;58.00;;;;;;6184185;23;20356;-71
2022/07/17 08:51:15;;;;;;;2.47;1.60;;;22.80;58.10;;;;;;6183794;23;20387;-71
2022/07/17 08:53:46;;;;;;;2.77;1.50;;;22.90;58.10;;;;;;6185707;23;20382;-70
2022/07/17 08:56:16;;;;;;;2.40;1.70;;;22.90;58.00;;;;;;6208795;23;20372;-70
2022/07/17 08:58:44;;;;;;;2.60;1.30;;;22.90;58.00;;;;;;6158704;23;20392;-70
2022/07/17 09:01:16;;;;;;;2.03;1.40;;;22.90;58.00;;;;;;6183732;23;20411;-70
2022/07/17 09:04:09;;;;;;;3.67;1.53;;;23.00;58.00;;;;;;6184009;23;20412;-70
2022/07/17 09:07:02;;;;;;;2.07;1.40;;;23.00;58.00;;;;;;6093902;23;20393;-70
2022/07/17 09:09:29;;;;;;;2.40;1.83;;;23.00;57.90;;;;;;6192886;23;20458;-71
2022/07/17 09:12:04;;;;;;;2.30;1.40;;;23.00;57.90;;;;;;6183980;23;20883;-71
2022/07/17 09:14:40;;;;;;;2.43;1.47;;;23.10;57.90;;;;;;6185421;23;20828;-71
2022/07/17 09:17:12;;;;;;;2.00;1.27;;;23.10;57.90;;;;;;6185012;23;20419;-70
2022/07/17 09:19:46;;;;;;;2.80;1.80;;;23.10;57.90;;;;;;6183262;23;20475;-70
2022/07/17 09:22:14;;;;;;;2.43;1.43;;;23.10;57.90;;;;;;6183873;23;20360;-71
2022/07/17 09:24:49;;;;;;;2.20;1.40;;;23.20;57.90;;;;;;6183813;23;20373;-71
2022/07/17 09:27:32;;;;;;;2.33;1.60;;;23.20;57.80;;;;;;6158682;23;20462;-70
2022/07/17 09:29:58;;;;;;;2.37;1.70;;;23.20;57.80;;;;;;6185213;23;20406;-71
2022/07/17 09:32:29;;;;;;;1.90;1.27;;;23.30;57.80;;;;;;6183536;23;20400;-71
2022/07/17 09:34:58;;;;;;;2.73;2.00;;;23.30;57.80;;;;;;6183818;23;20364;-71
2022/07/17 09:37:29;;;;;;;1.70;1.60;;;23.30;57.70;;;;;;6158106;23;20481;-70
2022/07/17 09:39:56;;;;;;;3.27;1.70;;;23.40;57.70;;;;;;6183403;23;20420;-70
2022/07/17 09:42:31;;;;;;;2.33;1.50;;;23.40;57.60;;;;;;6183433;23;20375;-70
2022/07/17 09:45:02;;;;;;;2.40;1.30;;;23.40;57.70;;;;;;6185087;23;20438;-70
2022/07/17 09:47:31;;;;;;;2.17;1.67;;;23.50;57.70;;;;;;6185071;23;20381;-70
2022/07/17 09:50:02;;;;;;;3.50;1.50;;;23.50;57.70;;;;;;6183540;23;20483;-71
2022/07/17 09:52:35;;;;;;;8.60;1.60;;;23.60;57.70;;;;;;6158388;23;20377;-70
2022/07/17 09:55:04;;;;;;;2.97;1.60;;;23.60;57.60;;;;;;6185028;23;20848;-71
2022/07/17 09:57:33;;;;;;;1.50;1.40;;;23.60;57.60;;;;;;6183232;23;20503;-70
2022/07/17 10:00:11;;;;;;;1.67;1.57;;;23.70;57.60;;;;;;6183251;23;20412;-70
2022/07/17 10:02:44;;;;;;;1.83;1.50;;;23.70;57.60;;;;;;6183422;23;20786;-70
2022/07/17 10:05:17;;;;;;;4.80;1.73;;;23.80;57.50;;;;;;6158470;23;20412;-70
2022/07/17 10:07:50;;;;;;;2.83;1.70;;;23.80;57.50;;;;;;6208105;23;20399;-70
2022/07/17 10:10:19;;;;;;;3.50;1.90;;;23.80;57.40;;;;;;6184788;23;20409;-70
2022/07/17 10:12:50;;;;;;;1.93;1.60;;;23.90;57.40;;;;;;6183247;23;20380;-71
2022/07/17 10:15:26;;;;;;;1.77;1.43;;;23.90;57.40;;;;;;6183086;23;20375;-70
2022/07/17 10:18:07;;;;;;;3.07;1.33;;;24.00;57.40;;;;;;6158830;23;20440;-70
2022/07/17 10:20:33;;;;;;;3.63;1.70;;;24.00;57.30;;;;;;6158367;23;20415;-71
2022/07/17 10:23:15;;;;;;;4.90;1.93;;;24.10;57.30;;;;;;6184839;23;20413;-71
2022/07/17 10:25:59;;;;;;;4.90;2.03;;;24.10;57.30;;;;;;6134334;23;20390;-70
2022/07/17 10:28:37;;;;;;;2.10;1.57;;;24.10;57.20;;;;;;6183027;23;20867;-71
2022/07/17 10:31:05;;;;;;;3.57;1.70;;;24.20;57.10;;;;;;6183109;23;20403;-71
2022/07/17 10:33:33;;;;;;;2.73;2.00;;;24.20;57.00;;;;;;6183257;23;20699;-71
2022/07/17 10:36:04;;;;;;;3.20;1.77;;;24.20;57.00;;;;;;6184303;23;20380;-70
2022/07/17 10:38:41;;;;;;;4.80;1.90;;;24.30;57.00;;;;;;6184061;23;20387;-70
2022/07/17 10:41:07;;;;;;;5.00;2.00;;;24.30;56.90;;;;;;6184380;23;20490;-71
2022/07/17 10:43:45;;;;;;;4.17;2.10;;;24.40;56.80;;;;;;6146027;23;20426;-71
2022/07/17 10:46:14;;;;;;;3.20;1.50;;;24.40;56.80;;;;;;6158700;23;20430;-71
2022/07/17 10:48:48;;;;;;;6.67;2.50;;;24.50;56.80;;;;;;6184319;23;20380;-70
2022/07/17 10:51:15;;;;;;;7.90;3.00;;;24.50;56.80;;;;;;6182951;23;20405;-71
2022/07/17 10:53:41;;;;;;;4.63;2.30;;;24.50;56.70;;;;;;6158190;23;20389;-71
2022/07/17 10:56:14;;;;;;;3.90;2.17;;;24.60;56.70;;;;;;6182800;23;20838;-71
2022/07/17 10:58:42;;;;;;;4.90;2.77;;;24.60;56.60;;;;;;6182789;23;20747;-71
2022/07/17 11:01:19;;;;;;;5.37;2.43;;;24.70;56.70;;;;;;6183847;23;20477;-70
2022/07/17 11:03:51;;;;;;;7.70;2.93;;;24.70;56.60;;;;;;6182782;23;20426;-71
2022/07/17 11:06:26;;;;;;;6.83;3.00;;;24.80;56.60;;;;;;6182894;23;20368;-71
2022/07/17 11:08:56;;;;;;;6.77;2.60;;;24.80;56.50;;;;;;6182797;23;20375;-71
2022/07/17 11:11:37;;;;;;;4.00;2.50;;;24.80;56.50;;;;;;6182471;23;20856;-70
2022/07/17 11:14:26;;;;;;;5.70;2.60;;;24.90;56.40;;;;;;6184232;23;20369;-70
2022/07/17 11:17:02;;;;;;;5.80;2.73;;;24.90;56.40;;;;;;6182632;23;20486;-71
2022/07/17 11:19:31;;;;;;;7.53;3.23;;;25.00;56.30;;;;;;6157505;23;20410;-71
2022/07/17 11:22:00;;;;;;;7.30;2.90;;;25.00;56.30;;;;;;6183989;23;20444;-70
2022/07/17 11:24:42;;;;;;;5.50;2.70;;;25.00;56.20;;;;;;6183858;23;20693;-70
2022/07/17 11:27:13;;;;;;;6.33;2.73;;;25.10;56.10;;;;;;6207926;23;20451;-71
2022/07/17 11:29:40;;;;;;;6.03;3.07;;;25.10;56.00;;;;;;6182108;23;20492;-70
2022/07/17 11:32:09;;;;;;;4.20;2.40;;;25.20;56.00;;;;;;6182232;23;20367;-70
2022/07/17 11:34:35;;;;;;;8.43;3.27;;;25.20;55.90;;;;;;6183588;23;20388;-70
2022/07/17 11:37:09;;;;;;;5.83;2.33;;;25.20;56.00;;;;;;6180173;23;20808;-70
2022/07/17 11:39:51;;;;;;;4.70;2.60;;;25.30;56.00;;;;;;6132471;23;20761;-70
2022/07/17 11:42:21;;;;;;;6.00;3.00;;;25.30;55.80;;;;;;6182436;23;20407;-70
2022/07/17 11:44:49;;;;;;;7.87;2.50;;;25.40;55.70;;;;;;6182969;23;20934;-70
2022/07/17 11:47:28;;;;;;;7.17;2.80;;;25.40;55.80;;;;;;6181382;23;20441;-70
2022/07/17 11:50:13;;;;;;;5.93;3.03;;;25.40;55.70;;;;;;6182512;23;20403;-71
2022/07/17 11:52:49;;;;;;;10.67;3.20;;;25.50;55.60;;;;;;6183678;23;20384;-70
2022/07/17 11:55:16;;;;;;;6.00;3.40;;;25.50;55.50;;;;;;6182087;23;20377;-70
2022/07/17 11:57:46;;;;;;;6.63;3.23;;;25.60;55.40;;;;;;6157756;23;20459;-70
2022/07/17 12:00:15;;;;;;;6.87;2.80;;;25.60;55.50;;;;;;6182636;23;20727;-71
2022/07/17 12:02:46;;;;;;;8.30;3.10;;;25.70;55.40;;;;;;6157820;23;20361;-70
2022/07/17 12:05:12;;;;;;;6.60;3.50;;;25.70;55.30;;;;;;6184005;23;20406;-70
2022/07/17 12:07:45;;;;;;;5.97;3.40;;;25.70;55.30;;;;;;6157622;23;20382;-70
2022/07/17 12:10:17;;;;;;;10.03;3.80;;;25.80;55.30;;;;;;6183724;23;20411;-70
2022/07/17 12:13:04;;;;;;;4.90;3.13;;;25.80;55.20;;;;;;6184011;23;20368;-70
2022/07/17 12:15:39;;;;;;;5.67;2.90;;;25.90;55.20;;;;;;6182546;23;20357;-71
2022/07/17 12:18:27;;;;;;;8.07;3.23;;;25.90;55.10;;;;;;6182847;23;20439;-70
2022/07/17 12:20:55;;;;;;;7.17;3.13;;;25.90;55.10;;;;;;6182128;23;20390;-70
2022/07/17 12:23:31;;;;;;;5.27;2.70;;;25.90;54.90;;;;;;6184068;23;20360;-70
2022/07/17 12:26:23;;;;;;;5.77;3.10;;;26.00;55.00;;;;;;6184127;23;20429;-70
2022/07/17 12:28:54;;;;;;;6.63;2.93;;;26.00;54.90;;;;;;6178495;23;20408;-70
2022/07/17 12:31:23;;;;;;;4.73;3.07;;;26.10;55.00;;;;;;6182438;23;20388;-70
2022/07/17 12:33:57;;;;;;;8.27;3.23;;;26.10;54.80;;;;;;6182315;23;20411;-70
2022/07/17 12:36:25;;;;;;;4.90;2.70;;;26.10;54.50;;;;;;6182967;23;20394;-70
2022/07/17 12:38:51;;;;;;;4.70;2.80;;;26.10;54.50;;;;;;6182170;23;20387;-70
2022/07/17 12:41:20;;;;;;;7.23;3.10;;;26.20;54.50;;;;;;6183384;23;20549;-70
2022/07/17 12:43:46;;;;;;;5.87;2.80;;;26.20;54.30;;;;;;6182209;23;20428;-70
2022/07/17 12:46:13;;;;;;;5.03;3.03;;;26.20;54.30;;;;;;6182231;23;20814;-70
2022/07/17 12:48:45;;;;;;;5.47;2.93;;;26.30;54.00;;;;;;6157861;23;20403;-70
2022/07/17 12:51:16;;;;;;;3.70;2.53;;;26.30;53.90;;;;;;6182192;23;20396;-70
2022/07/17 12:53:47;;;;;;;7.77;3.03;;;26.30;54.10;;;;;;6157534;23;20386;-69
2022/07/17 12:56:16;;;;;;;4.63;2.60;;;26.40;54.00;;;;;;6182110;23;20486;-70
2022/07/17 12:58:42;;;;;;;5.10;2.67;;;26.40;53.90;;;;;;6157492;23;20400;-70
2022/07/17 13:01:09;;;;;;;5.33;3.13;;;26.40;54.00;;;;;;6182088;23;20928;-71